createdAt,value
2018-11-10T00:00:37.747Z,25.87
2018-11-10T00:03:05.855Z,27.30
2018-11-10T00:05:33.721Z,27.30
2018-11-10T00:08:01.437Z,28.07
2018-11-10T00:10:34.170Z,28.43
2018-11-10T00:13:01.754Z,26.50
2018-11-10T00:15:29.374Z,29.90
2018-11-10T00:17:57.050Z,26.93
2018-11-10T00:20:24.718Z,29.63
2018-11-10T00:22:52.324Z,27.23
2018-11-10T00:25:19.950Z,27.20
2018-11-10T00:27:47.642Z,28.57
2018-11-10T00:30:16.672Z,29.73
2018-11-10T00:32:45.053Z,26.87
2018-11-10T00:35:13.023Z,28.97
2018-11-10T00:37:40.769Z,29.63
2018-11-10T00:40:10.338Z,26.27
2018-11-10T00:42:38.038Z,27.07
2018-11-10T00:45:06.468Z,25.67
2018-11-10T00:47:34.156Z,25.10
2018-11-10T00:50:01.776Z,26.97
2018-11-10T00:52:29.407Z,26.13
2018-11-10T00:54:56.998Z,25.03
2018-11-10T00:57:24.930Z,28.23
2018-11-10T00:59:52.606Z,25.93
2018-11-10T01:02:20.179Z,28.13
2018-11-10T01:04:47.754Z,26.43
2018-11-10T01:07:15.302Z,28.47
2018-11-10T01:09:42.894Z,27.50
2018-11-10T01:12:10.494Z,26.97
2018-11-10T01:14:38.227Z,29.17
2018-11-10T01:17:06.042Z,26.40
2018-11-10T01:19:33.709Z,26.10
2018-11-10T01:22:01.271Z,26.97
2018-11-10T01:24:29.010Z,26.77
2018-11-10T01:26:56.581Z,26.53
2018-11-10T01:29:24.146Z,27.90
2018-11-10T01:31:51.719Z,27.40
2018-11-10T01:34:19.456Z,28.00
2018-11-10T01:36:47.086Z,28.27
2018-11-10T01:39:14.686Z,28.60
2018-11-10T01:41:42.298Z,27.83
2018-11-10T01:44:09.962Z,29.17
2018-11-10T01:46:37.570Z,26.77
2018-11-10T01:49:05.334Z,27.03
2018-11-10T01:51:33.270Z,26.53
2018-11-10T01:54:01.332Z,27.73
2018-11-10T01:56:29.102Z,28.83
2018-11-10T01:58:57.030Z,27.07
2018-11-10T02:01:24.651Z,25.67
2018-11-10T02:03:52.297Z,27.97
2018-11-10T02:06:19.904Z,24.83
2018-11-10T02:08:47.442Z,26.03
2018-11-10T02:11:15.017Z,26.20
2018-11-10T02:13:42.670Z,28.13
2018-11-10T02:16:10.291Z,25.43
2018-11-10T02:18:38.254Z,26.97
2018-11-10T02:21:05.876Z,27.57
2018-11-10T02:23:33.586Z,27.00
2018-11-10T02:26:01.778Z,27.80
2018-11-10T02:28:29.355Z,27.43
2018-11-10T02:30:56.994Z,25.37
2018-11-10T02:33:24.568Z,26.17
2018-11-10T02:35:52.135Z,25.07
2018-11-10T02:38:19.916Z,27.03
2018-11-10T02:40:47.538Z,26.60
2018-11-10T02:43:15.197Z,25.07
2018-11-10T02:45:42.884Z,26.50
2018-11-10T02:48:10.434Z,26.37
2018-11-10T02:50:38.138Z,25.93
2018-11-10T02:53:05.787Z,27.30
2018-11-10T02:55:33.383Z,24.33
2018-11-10T02:58:00.923Z,25.83
2018-11-10T03:00:28.522Z,25.47
2018-11-10T03:02:56.125Z,25.47
2018-11-10T03:05:23.724Z,25.40
2018-11-10T03:07:51.345Z,26.23
2018-11-10T03:10:18.954Z,26.90
2018-11-10T03:12:46.526Z,25.77
2018-11-10T03:15:14.122Z,24.90
2018-11-10T03:17:41.693Z,27.23
2018-11-10T03:20:11.366Z,25.73
2018-11-10T03:22:38.907Z,25.43
2018-11-10T03:25:06.623Z,26.57
2018-11-10T03:27:34.199Z,26.90
2018-11-10T03:30:01.950Z,25.07
2018-11-10T03:32:29.563Z,24.20
2018-11-10T03:34:57.118Z,26.87
2018-11-10T03:37:24.774Z,27.07
2018-11-10T03:39:52.539Z,25.77
2018-11-10T03:42:20.101Z,26.10
2018-11-10T03:44:47.631Z,23.60
2018-11-10T03:47:15.176Z,25.23
2018-11-10T03:49:42.802Z,25.23
2018-11-10T03:52:10.403Z,26.67
2018-11-10T03:54:38.142Z,24.40
2018-11-10T03:57:05.697Z,24.47
2018-11-10T03:59:33.460Z,27.07
2018-11-10T04:02:01.044Z,23.40
2018-11-10T04:04:28.591Z,24.87
2018-11-10T04:06:56.207Z,23.13
2018-11-10T04:09:23.769Z,24.70
2018-11-10T04:11:52.018Z,24.33
2018-11-10T04:14:19.602Z,22.73
2018-11-10T04:16:47.178Z,23.33
2018-11-10T04:19:14.744Z,24.63
2018-11-10T04:21:42.466Z,24.23
2018-11-10T04:24:10.138Z,22.70
2018-11-10T04:26:37.699Z,25.17
2018-11-10T04:29:05.346Z,23.60
2018-11-10T04:31:33.066Z,23.57
2018-11-10T04:34:00.679Z,24.47
2018-11-10T04:36:28.226Z,22.03
2018-11-10T04:38:55.895Z,23.60
2018-11-10T04:41:23.610Z,21.90
2018-11-10T04:43:51.189Z,24.33
2018-11-10T04:46:18.815Z,21.97
2018-11-10T04:48:46.365Z,25.30
2018-11-10T04:51:13.962Z,21.97
2018-11-10T04:53:41.592Z,24.50
2018-11-10T04:56:09.156Z,23.00
2018-11-10T04:58:36.847Z,22.20
2018-11-10T05:01:04.923Z,19.30
2018-11-10T05:03:32.511Z,22.07
2018-11-10T05:06:00.098Z,20.97
2018-11-10T05:08:27.630Z,21.90
2018-11-10T05:10:55.186Z,20.43
2018-11-10T05:13:22.725Z,19.07
2018-11-10T05:15:50.349Z,16.37
2018-11-10T05:18:18.143Z,16.20
2018-11-10T05:20:45.746Z,19.17
2018-11-10T05:23:13.338Z,19.23
2018-11-10T05:25:40.902Z,18.43
2018-11-10T05:28:08.541Z,17.87
2018-11-10T05:30:36.099Z,17.10
2018-11-10T05:33:06.189Z,20.07
2018-11-10T05:35:33.861Z,19.77
2018-11-10T05:38:01.604Z,18.20
2018-11-10T05:40:29.172Z,18.93
2018-11-10T05:42:56.729Z,19.70
2018-11-10T05:45:24.432Z,19.87
2018-11-10T05:47:51.982Z,19.10
2018-11-10T05:50:19.543Z,20.97
2018-11-10T05:52:47.274Z,18.77
2018-11-10T05:55:14.825Z,19.00
2018-11-10T05:57:42.518Z,18.93
2018-11-10T06:00:11.538Z,19.53
2018-11-10T06:02:39.179Z,18.87
2018-11-10T06:05:06.944Z,18.50
2018-11-10T06:07:34.503Z,19.40
2018-11-10T06:10:02.298Z,17.57
2018-11-10T06:12:29.629Z,17.67
2018-11-10T06:14:57.191Z,19.50
2018-11-10T06:17:24.742Z,17.00
2018-11-10T06:19:52.395Z,16.47
2018-11-10T06:22:20.131Z,16.60
2018-11-10T06:24:47.894Z,17.43
2018-11-10T06:27:15.449Z,17.40
2018-11-10T06:29:43.021Z,18.13
2018-11-10T06:32:10.614Z,17.13
2018-11-10T06:34:38.423Z,16.53
2018-11-10T06:37:06.123Z,15.93
2018-11-10T06:39:33.709Z,17.67
2018-11-10T06:42:01.278Z,16.40
2018-11-10T06:44:28.930Z,17.37
2018-11-10T06:46:56.539Z,17.50
2018-11-10T06:49:24.143Z,17.07
2018-11-10T06:51:51.791Z,17.90
2018-11-10T06:54:19.487Z,17.10
2018-11-10T06:56:47.110Z,15.87
2018-11-10T06:59:14.784Z,16.20
2018-11-10T07:01:42.352Z,18.20
2018-11-10T07:04:09.970Z,24.93
2018-11-10T07:06:37.630Z,18.40
2018-11-10T07:09:08.621Z,17.90
2018-11-10T07:11:36.272Z,18.10
2018-11-10T07:14:03.918Z,16.50
2018-11-10T07:16:31.594Z,15.90
2018-11-10T07:18:59.474Z,16.10
2018-11-10T07:21:27.214Z,15.63
2018-11-10T07:23:54.849Z,15.73
2018-11-10T07:26:22.499Z,17.13
2018-11-10T07:28:50.590Z,16.00
2018-11-10T07:31:18.197Z,17.00
2018-11-10T07:33:46.003Z,14.93
2018-11-10T07:36:13.806Z,16.10
2018-11-10T07:38:41.404Z,14.63
2018-11-10T07:41:09.025Z,13.87
2018-11-10T07:43:36.680Z,14.37
2018-11-10T07:46:04.390Z,15.13
2018-11-10T07:48:32.112Z,15.63
2018-11-10T07:50:59.713Z,14.07
2018-11-10T07:53:27.343Z,12.37
2018-11-10T07:55:54.989Z,13.40
2018-11-10T07:58:22.678Z,12.53
2018-11-10T08:00:50.312Z,13.40
2018-11-10T08:03:18.040Z,14.83
2018-11-10T08:05:45.607Z,13.83
2018-11-10T08:08:13.183Z,18.73
2018-11-10T08:10:40.766Z,13.97
2018-11-10T08:13:08.403Z,15.47
2018-11-10T08:15:36.011Z,13.33
2018-11-10T08:18:03.635Z,13.93
2018-11-10T08:20:31.242Z,16.97
2018-11-10T08:22:58.830Z,16.17
2018-11-10T08:25:26.406Z,15.70
2018-11-10T08:27:54.118Z,16.60
2018-11-10T08:30:21.795Z,16.53
2018-11-10T08:32:49.518Z,16.87
2018-11-10T08:35:17.166Z,16.77
2018-11-10T08:37:44.785Z,16.17
2018-11-10T08:40:13.778Z,15.97
2018-11-10T08:42:41.431Z,16.03
2018-11-10T08:45:10.406Z,17.80
2018-11-10T08:47:38.168Z,15.23
2018-11-10T08:50:06.782Z,16.53
2018-11-10T08:52:34.607Z,17.90
2018-11-10T08:55:02.270Z,16.27
2018-11-10T08:57:29.897Z,15.57
2018-11-10T08:59:57.750Z,21.73
2018-11-10T09:02:25.337Z,18.03
2018-11-10T09:04:52.929Z,17.83
2018-11-10T09:07:20.595Z,16.37
2018-11-10T09:09:48.231Z,16.33
2018-11-10T09:12:15.840Z,18.50
2018-11-10T09:14:43.430Z,16.27
2018-11-10T09:17:11.034Z,16.30
2018-11-10T09:19:38.645Z,16.80
2018-11-10T09:22:06.742Z,19.60
2018-11-10T09:24:34.595Z,20.33
2018-11-10T09:27:02.359Z,19.33
2018-11-10T09:29:29.998Z,17.53
2018-11-10T09:31:57.582Z,16.33
2018-11-10T09:34:25.187Z,17.00
2018-11-10T09:36:52.801Z,15.70
2018-11-10T09:39:20.384Z,17.47
2018-11-10T09:41:47.948Z,16.83
2018-11-10T09:44:15.512Z,14.87
2018-11-10T09:46:43.114Z,14.90
2018-11-10T09:49:10.798Z,14.17
2018-11-10T09:51:39.666Z,18.37
2018-11-10T09:54:07.671Z,16.70
2018-11-10T09:56:35.506Z,13.20
2018-11-10T09:59:03.210Z,12.90
2018-11-10T10:01:31.055Z,12.83
2018-11-10T10:03:58.979Z,13.23
2018-11-10T10:06:26.674Z,12.63
2018-11-10T10:08:54.712Z,11.83
2018-11-10T10:11:22.275Z,15.10
2018-11-10T10:13:49.945Z,14.73
2018-11-10T10:16:18.705Z,12.27
2018-11-10T10:18:46.361Z,12.97
2018-11-10T10:21:14.029Z,13.00
2018-11-10T10:23:41.614Z,12.03
2018-11-10T10:26:09.375Z,10.80
2018-11-10T10:28:37.060Z,11.50
2018-11-10T10:31:05.609Z,12.17
2018-11-10T10:33:33.180Z,10.83
2018-11-10T10:36:00.753Z,10.27
2018-11-10T10:38:28.350Z,9.40
2018-11-10T10:40:55.963Z,9.07
2018-11-10T10:43:23.522Z,9.37
2018-11-10T10:45:51.105Z,12.33
2018-11-10T10:48:18.675Z,10.53
2018-11-10T10:50:46.553Z,10.37
2018-11-10T10:53:14.154Z,8.53
2018-11-10T10:55:41.744Z,9.90
2018-11-10T10:58:09.546Z,11.27
2018-11-10T11:00:42.950Z,8.67
2018-11-10T11:03:16.540Z,10.63
2018-11-10T11:05:48.663Z,7.90
2018-11-10T11:08:16.346Z,8.63
2018-11-10T11:10:44.008Z,8.93
2018-11-10T11:13:11.580Z,9.50
2018-11-10T11:15:39.248Z,9.87
2018-11-10T11:18:06.843Z,9.40
2018-11-10T11:20:34.507Z,10.43
2018-11-10T11:23:02.183Z,10.13
2018-11-10T11:25:29.803Z,9.30
2018-11-10T11:27:57.442Z,7.50
2018-11-10T11:30:25.173Z,8.07
2018-11-10T11:32:52.867Z,8.20
2018-11-10T11:35:20.568Z,8.07
2018-11-10T11:37:48.153Z,8.87
2018-11-10T11:40:15.815Z,7.20
2018-11-10T11:42:43.703Z,9.37
2018-11-10T11:45:12.118Z,11.03
2018-11-10T11:47:40.314Z,8.90
2018-11-10T11:50:09.475Z,7.97
2018-11-10T11:52:37.388Z,7.10
2018-11-10T11:55:05.359Z,6.53
2018-11-10T11:57:32.936Z,8.03
2018-11-10T12:00:00.704Z,8.03
2018-11-10T12:02:28.326Z,7.40
2018-11-10T12:04:55.919Z,6.17
2018-11-10T12:07:23.550Z,6.73
2018-11-10T12:09:51.216Z,6.23
2018-11-10T12:12:19.067Z,6.10
2018-11-10T12:14:46.677Z,6.87
2018-11-10T12:17:14.278Z,6.43
2018-11-10T12:19:41.889Z,5.83
2018-11-10T12:22:09.592Z,5.93
2018-11-10T12:24:37.133Z,5.50
2018-11-10T12:27:04.914Z,5.60
2018-11-10T12:29:32.877Z,5.73
2018-11-10T12:32:00.547Z,5.47
2018-11-10T12:34:28.090Z,5.03
2018-11-10T12:36:55.654Z,7.53
2018-11-10T12:39:23.194Z,4.73
2018-11-10T12:41:50.894Z,6.27
2018-11-10T12:44:18.499Z,5.80
2018-11-10T12:46:46.203Z,6.23
2018-11-10T12:49:14.097Z,5.40
2018-11-10T12:51:41.663Z,6.30
2018-11-10T12:54:09.378Z,4.57
2018-11-10T12:56:37.006Z,7.83
2018-11-10T12:59:04.688Z,4.77
2018-11-10T13:01:32.334Z,5.10
2018-11-10T13:03:59.975Z,5.83
2018-11-10T13:06:27.567Z,6.10
2018-11-10T13:08:55.157Z,6.03
2018-11-10T13:14:14.048Z,6.17
2018-11-10T13:16:48.266Z,6.70
2018-11-10T13:19:15.858Z,7.30
2018-11-10T13:21:48.327Z,7.50
2018-11-10T13:24:16.106Z,6.63
2018-11-10T13:26:43.698Z,7.17
2018-11-10T13:29:11.249Z,7.33
2018-11-10T13:31:38.964Z,7.67
2018-11-10T13:34:06.570Z,7.60
2018-11-10T13:36:34.161Z,8.70
2018-11-10T13:39:01.841Z,7.07
2018-11-10T13:41:29.558Z,7.73
2018-11-10T13:43:57.323Z,9.60
2018-11-10T13:46:25.000Z,7.50
2018-11-10T13:48:52.685Z,8.53
2018-11-10T13:51:20.348Z,7.03
2018-11-10T13:53:48.828Z,7.23
2018-11-10T13:56:16.687Z,6.00
2018-11-10T13:58:48.106Z,7.70
2018-11-10T14:04:12.254Z,5.80
2018-11-10T14:06:48.460Z,6.93
2018-11-10T14:09:16.062Z,5.80
2018-11-10T14:11:48.498Z,6.37
2018-11-10T14:14:16.122Z,6.77
2018-11-10T14:16:43.716Z,7.40
2018-11-10T14:19:11.279Z,6.83
2018-11-10T14:21:38.850Z,5.17
2018-11-10T14:24:06.554Z,9.17
2018-11-10T14:26:34.185Z,7.00
2018-11-10T14:29:01.836Z,8.17
2018-11-10T14:31:29.487Z,4.50
2018-11-10T14:33:57.882Z,5.23
2018-11-10T14:36:25.471Z,5.40
2018-11-10T14:38:53.150Z,9.53
2018-11-10T14:41:20.754Z,6.50
2018-11-10T14:43:48.383Z,4.97
2018-11-10T14:46:16.082Z,6.23
2018-11-10T14:48:43.740Z,7.17
2018-11-10T14:51:11.484Z,6.40
2018-11-10T14:53:39.035Z,7.00
2018-11-10T14:56:06.633Z,7.87
2018-11-10T14:58:34.258Z,6.37
2018-11-10T15:01:01.808Z,8.27
2018-11-10T15:03:29.375Z,8.27
2018-11-10T15:05:56.972Z,11.17
2018-11-10T15:08:24.576Z,6.93
2018-11-10T15:10:52.166Z,6.70
2018-11-10T15:13:19.784Z,8.33
2018-11-10T15:15:47.403Z,9.47
2018-11-10T15:18:15.110Z,6.73
2018-11-10T15:20:42.585Z,7.83
2018-11-10T15:23:10.223Z,18.83
2018-11-10T15:25:37.786Z,6.33
2018-11-10T15:28:05.444Z,7.83
2018-11-10T15:30:33.002Z,6.77
2018-11-10T15:33:00.603Z,7.77
2018-11-10T15:35:28.187Z,10.07
2018-11-10T15:37:55.900Z,7.27
2018-11-10T15:40:23.495Z,11.40
2018-11-10T15:42:58.806Z,14.80
2018-11-10T15:45:27.331Z,8.27
2018-11-10T15:47:54.959Z,6.57
2018-11-10T15:50:22.650Z,8.20
2018-11-10T15:52:50.250Z,11.97
2018-11-10T15:55:17.868Z,11.40
2018-11-10T15:57:45.461Z,13.60
2018-11-10T16:00:17.025Z,7.63
2018-11-10T16:02:44.739Z,9.03
2018-11-10T16:05:12.870Z,6.17
2018-11-10T16:07:40.502Z,7.23
2018-11-10T16:10:08.201Z,7.67
2018-11-10T16:12:35.998Z,8.63
2018-11-10T16:15:04.345Z,6.93
2018-11-10T16:17:31.969Z,6.33
2018-11-10T16:19:59.567Z,7.13
2018-11-10T16:22:27.142Z,7.47
2018-11-10T16:24:54.722Z,6.73
2018-11-10T16:27:22.330Z,5.67
2018-11-10T16:29:49.923Z,10.50
2018-11-10T16:32:17.506Z,5.60
2018-11-10T16:34:45.085Z,7.40
2018-11-10T16:37:12.835Z,10.47
2018-11-10T16:39:40.322Z,9.47
2018-11-10T16:42:08.015Z,6.17
2018-11-10T16:44:35.674Z,7.07
2018-11-10T16:47:03.296Z,6.63
2018-11-10T16:49:31.034Z,7.00
2018-11-10T16:51:58.722Z,8.23
2018-11-10T16:54:26.302Z,8.70
2018-11-10T16:56:53.930Z,9.53
2018-11-10T16:59:21.534Z,10.27
2018-11-10T17:01:49.163Z,5.40
2018-11-10T17:04:16.746Z,7.37
2018-11-10T17:06:44.323Z,7.40
2018-11-10T17:09:12.810Z,9.50
2018-11-10T17:11:40.406Z,12.13
2018-11-10T17:14:09.311Z,10.87
2018-11-10T17:16:37.125Z,8.37
2018-11-10T17:19:05.361Z,6.87
2018-11-10T17:21:33.104Z,11.60
2018-11-10T17:24:00.706Z,9.63
2018-11-10T17:26:28.354Z,10.27
2018-11-10T17:28:55.966Z,7.33
2018-11-10T17:31:23.831Z,7.60
2018-11-10T17:33:51.396Z,6.53
2018-11-10T17:36:19.026Z,11.93
2018-11-10T17:38:46.701Z,7.60
2018-11-10T17:41:14.267Z,11.63
2018-11-10T17:43:41.936Z,10.73
2018-11-10T17:46:09.566Z,7.30
2018-11-10T17:48:37.185Z,9.93
2018-11-10T17:51:04.883Z,7.97
2018-11-10T17:53:32.532Z,12.47
2018-11-10T17:56:00.097Z,9.93
2018-11-10T17:58:27.705Z,12.40
2018-11-10T18:00:55.307Z,13.60
2018-11-10T18:03:22.966Z,11.83
2018-11-10T18:05:51.483Z,13.47
2018-11-10T18:08:19.085Z,10.17
2018-11-10T18:10:46.740Z,10.93
2018-11-10T18:13:14.357Z,14.07
2018-11-10T18:15:41.992Z,13.57
2018-11-10T18:18:09.602Z,17.30
2018-11-10T18:20:37.219Z,12.87
2018-11-10T18:23:04.884Z,14.50
2018-11-10T18:25:32.537Z,17.00
2018-11-10T18:28:00.110Z,15.23
2018-11-10T18:30:27.731Z,13.17
2018-11-10T18:32:55.318Z,16.03
2018-11-10T18:35:22.991Z,13.70
2018-11-10T18:37:50.656Z,19.10
2018-11-10T18:40:18.558Z,12.57
2018-11-10T18:42:46.176Z,7.70
2018-11-10T18:45:13.770Z,11.93
2018-11-10T18:47:41.771Z,14.40
2018-11-10T18:50:11.371Z,11.40
2018-11-10T18:52:39.102Z,10.10
2018-11-10T18:55:06.857Z,10.33
2018-11-10T18:57:34.529Z,9.97
2018-11-10T19:00:02.192Z,13.77
2018-11-10T19:02:29.928Z,14.53
2018-11-10T19:04:57.545Z,8.87
2018-11-10T19:07:25.185Z,7.60
2018-11-10T19:09:52.863Z,12.93
2018-11-10T19:12:20.490Z,15.37
2018-11-10T19:14:48.160Z,14.63
2018-11-10T19:17:15.803Z,16.07
2018-11-10T19:19:43.386Z,14.83
2018-11-10T19:22:11.154Z,18.67
2018-11-10T19:24:38.786Z,16.13
2018-11-10T19:27:06.441Z,10.70
2018-11-10T19:29:34.180Z,12.03
2018-11-10T19:32:01.953Z,12.53
2018-11-10T19:34:29.509Z,19.60
2018-11-10T19:36:57.199Z,18.10
2018-11-10T19:39:24.874Z,14.63
2018-11-10T19:41:52.559Z,16.80
2018-11-10T19:44:20.281Z,10.77
2018-11-10T19:46:47.882Z,12.00
2018-11-10T19:49:15.440Z,11.60
2018-11-10T19:51:43.323Z,12.10
2018-11-10T19:54:10.812Z,13.37
2018-11-10T19:56:38.469Z,14.50
2018-11-10T19:59:06.146Z,14.77
2018-11-10T20:01:33.847Z,11.53
2018-11-10T20:04:01.510Z,13.23
2018-11-10T20:06:29.249Z,12.60
2018-11-10T20:08:56.926Z,14.40
2018-11-10T20:11:24.567Z,17.37
2018-11-10T20:13:52.247Z,16.67
2018-11-10T20:16:19.835Z,14.20
2018-11-10T20:18:47.466Z,16.87
2018-11-10T20:21:15.055Z,17.83
2018-11-10T20:23:42.778Z,15.70
2018-11-10T20:26:10.366Z,13.93
2018-11-10T20:28:37.955Z,13.40
2018-11-10T20:31:05.579Z,11.23
2018-11-10T20:33:33.292Z,12.93
2018-11-10T20:36:00.859Z,13.27
2018-11-10T20:38:28.518Z,16.73
2018-11-10T20:40:56.173Z,15.30
2018-11-10T20:43:23.779Z,15.17
2018-11-10T20:45:51.358Z,14.50
2018-11-10T20:48:18.922Z,15.20
2018-11-10T20:50:46.509Z,14.57
2018-11-10T20:53:14.104Z,16.47
2018-11-10T20:55:41.739Z,14.30
2018-11-10T20:58:09.414Z,16.93
2018-11-10T21:00:37.116Z,15.83
2018-11-10T21:03:04.704Z,15.63
2018-11-10T21:05:32.359Z,15.33
2018-11-10T21:07:59.979Z,16.93
2018-11-10T21:10:27.551Z,17.90
2018-11-10T21:12:55.280Z,15.87
2018-11-10T21:15:22.767Z,15.83
2018-11-10T21:17:50.357Z,17.70
2018-11-10T21:20:17.972Z,16.47
2018-11-10T21:22:45.574Z,15.73
2018-11-10T21:25:14.688Z,15.40
2018-11-10T21:27:42.624Z,16.60
2018-11-10T21:30:11.760Z,16.63
2018-11-10T21:32:39.339Z,14.60
2018-11-10T21:35:07.736Z,17.73
2018-11-10T21:37:35.587Z,18.97
2018-11-10T21:40:03.761Z,18.07
2018-11-10T21:42:31.444Z,16.70
2018-11-10T21:44:59.075Z,19.60
2018-11-10T21:47:26.638Z,16.93
2018-11-10T21:49:54.350Z,16.23
2018-11-10T21:52:21.895Z,14.87
2018-11-10T21:54:49.541Z,15.67
2018-11-10T21:57:17.186Z,18.40
2018-11-10T21:59:44.814Z,16.60
2018-11-10T22:02:12.442Z,15.20
2018-11-10T22:04:40.199Z,15.00
2018-11-10T22:07:07.783Z,17.37
2018-11-10T22:09:35.477Z,14.27
2018-11-10T22:12:03.016Z,16.27
2018-11-10T22:14:30.692Z,15.63
2018-11-10T22:16:58.358Z,16.73
2018-11-10T22:19:25.978Z,17.80
2018-11-10T22:21:53.687Z,16.93
2018-11-10T22:24:21.498Z,15.17
2018-11-10T22:26:49.133Z,15.13
2018-11-10T22:29:16.769Z,15.87
2018-11-10T22:31:44.413Z,15.47
2018-11-10T22:34:12.054Z,16.23
2018-11-10T22:36:39.680Z,12.97
2018-11-10T22:39:08.368Z,14.73
2018-11-10T22:41:35.990Z,15.33
2018-11-10T22:44:03.681Z,17.80
2018-11-10T22:46:31.322Z,13.30
2018-11-10T22:48:58.939Z,14.63
2018-11-10T22:51:26.655Z,15.93
2018-11-10T22:53:54.255Z,15.33
2018-11-10T22:56:21.876Z,15.97
2018-11-10T22:58:49.537Z,14.90
2018-11-10T23:01:17.185Z,14.40
2018-11-10T23:03:44.984Z,14.00
2018-11-10T23:06:12.475Z,12.70
2018-11-10T23:08:40.082Z,14.03
2018-11-10T23:11:07.824Z,16.10
2018-11-10T23:13:35.647Z,12.17
2018-11-10T23:16:03.379Z,11.20
2018-11-10T23:18:31.019Z,13.23
2018-11-10T23:20:58.642Z,15.70
2018-11-10T23:23:26.431Z,14.87
2018-11-10T23:25:53.982Z,14.07
2018-11-10T23:28:21.641Z,16.43
2018-11-10T23:30:49.212Z,16.07
2018-11-10T23:33:16.841Z,17.23
2018-11-10T23:35:44.494Z,13.70
2018-11-10T23:38:12.157Z,14.80
2018-11-10T23:40:39.731Z,14.37
2018-11-10T23:43:07.290Z,14.40
2018-11-10T23:45:34.965Z,12.93
2018-11-10T23:48:02.697Z,16.70
2018-11-10T23:50:30.315Z,14.83
2018-11-10T23:52:57.936Z,15.70
2018-11-10T23:55:25.646Z,16.27
2018-11-10T23:57:53.218Z,15.77
